Главная страница
METAR-TAF:

METAR-TAF

Аэропорты :

Шлeзвиг-Jagel, Германия

широта: 54-28N, долгота: 009-31E, высота над уровнем моря: 22 м

Текущие метеонаблюдения

Эта сводка был подготовлена 1 час и 3 минут назад, в 22:20 UTC
Ветер 5 Узел от восточно-северо-восточный
Температура 0°C
Влажность 93%
Давление 1038 hPa
Видимость 10 км и более

METAR: ETNS 172220Z AUTO 07005KT 9999 // ////// 00/M01 Q1038 ///

Время: 00:23 (23:23 UTC)


TAF: отсутствует

Метеонаблюдения и прогнозы для более 4000 аэропортов (сводки METAR и TAF).

Имеющиеся станции представлены на карте желтыми и красными точками.

Чтобы увидеть название станции, наведите на нее мышь.

Затем щелкните, чтобы увидеть метеонаблюдения и метеопрогнозы.

Управление картой: чтобы увеличить масштаб, щелкните зеленые кнопки с черным крестиком; чтобы уменьшить масштаб, щелкните зеленую кнопку с тире; для просмотра соседних карт щелкайте зеленые стрелки.


METAR-TAF: